Wetterdaten: Freitag, 18.03.2011
Datum Zeit Temp. A. Feuchte A. Luftdruck Regen Wind Richtung Richtung Sonnenschein UV Solar Windben
18.03.2011 00:00 6,3 C 91 % 1013,4 hPa 0,0 mm 3,2 km/h (1 Bft) NW 315 0 min 0 UV-I 0 W/m 11,3 km/h (2 Bft)
18.03.2011 00:10 6,3 C 91 % 1013,4 hPa 0,0 mm 1,6 km/h (1 Bft) W-NW 292 0 min 0 UV-I 0 W/m 6,4 km/h (2 Bft)
18.03.2011 00:20 6,3 C 91 % 1013,5 hPa 0,0 mm 3,2 km/h (1 Bft) W-NW 292 0 min 0 UV-I 0 W/m 14,5 km/h (3 Bft)
18.03.2011 00:30 6,3 C 91 % 1013,7 hPa 0,0 mm 1,6 km/h (1 Bft) NW 315 0 min 0 UV-I 0 W/m 11,3 km/h (2 Bft)
18.03.2011 00:40 6,3 C 91 % 1014,0 hPa 0,0 mm 3,2 km/h (1 Bft) W-NW 292 0 min 0 UV-I 0 W/m 9,7 km/h (2 Bft)
18.03.2011 00:50 6,3 C 91 % 1014,0 hPa 0,0 mm 1,6 km/h (1 Bft) W 270 0 min 0 UV-I 0 W/m 9,7 km/h (2 Bft)
18.03.2011 01:00 6,3 C 91 % 1014,1 hPa 0,0 mm 4,8 km/h (1 Bft) W 270 0 min 0 UV-I 0 W/m 12,9 km/h (3 Bft)
18.03.2011 01:10 6,3 C 91 % 1014,2 hPa 0,0 mm 4,8 km/h (1 Bft) W 270 0 min 0 UV-I 0 W/m 14,5 km/h (3 Bft)
18.03.2011 01:20 6,3 C 91 % 1014,3 hPa 0,0 mm 4,8 km/h (1 Bft) W-NW 292 0 min 0 UV-I 0 W/m 16,1 km/h (3 Bft)
18.03.2011 01:30 6,2 C 91 % 1014,5 hPa 0,0 mm 6,4 km/h (2 Bft) W 270 0 min 0 UV-I 0 W/m 19,3 km/h (3 Bft)
18.03.2011 01:40 6,2 C 91 % 1014,6 hPa 0,0 mm 6,4 km/h (2 Bft) W 270 0 min 0 UV-I 0 W/m 16,1 km/h (3 Bft)
18.03.2011 01:50 6,2 C 92 % 1014,6 hPa 0,0 mm 6,4 km/h (2 Bft) W 270 0 min 0 UV-I 0 W/m 19,3 km/h (3 Bft)
18.03.2011 02:00 6,1 C 91 % 1014,9 hPa 0,0 mm 6,4 km/h (2 Bft) W 270 0 min 0 UV-I 0 W/m 19,3 km/h (3 Bft)
18.03.2011 02:10 6,0 C 92 % 1015,0 hPa 0,0 mm 6,4 km/h (2 Bft) W 270 0 min 0 UV-I 0 W/m 20,9 km/h (4 Bft)
18.03.2011 02:20 6,0 C 92 % 1015,0 hPa 0,3 mm 4,8 km/h (1 Bft) W 270 0 min 0 UV-I 0 W/m 16,1 km/h (3 Bft)
18.03.2011 02:30 5,9 C 92 % 1015,1 hPa 0,0 mm 6,4 km/h (2 Bft) W 270 0 min 0 UV-I 0 W/m 25,7 km/h (4 Bft)
18.03.2011 02:40 5,8 C 92 % 1015,1 hPa 0,0 mm 8,0 km/h (2 Bft) W-NW 292 0 min 0 UV-I 0 W/m 19,3 km/h (3 Bft)
18.03.2011 02:50 5,7 C 92 % 1015,3 hPa 0,0 mm 6,4 km/h (2 Bft) W-NW 292 0 min 0 UV-I 0 W/m 20,9 km/h (4 Bft)
18.03.2011 03:00 5,7 C 92 % 1015,4 hPa 0,0 mm 6,4 km/h (2 Bft) W-NW 292 0 min 0 UV-I 0 W/m 22,5 km/h (4 Bft)
18.03.2011 03:10 5,6 C 92 % 1015,6 hPa 0,0 mm 4,8 km/h (1 Bft) W-NW 292 0 min 0 UV-I 0 W/m 14,5 km/h (3 Bft)
18.03.2011 03:20 5,6 C 92 % 1015,6 hPa 0,0 mm 4,8 km/h (1 Bft) W 270 0 min 0 UV-I 0 W/m 24,1 km/h (4 Bft)
18.03.2011 03:30 5,6 C 92 % 1015,6 hPa 0,0 mm 6,4 km/h (2 Bft) W-NW 292 0 min 0 UV-I 0 W/m 20,9 km/h (4 Bft)
18.03.2011 03:40 5,6 C 92 % 1015,7 hPa 0,0 mm 4,8 km/h (1 Bft) W 270 0 min 0 UV-I 0 W/m 19,3 km/h (3 Bft)
18.03.2011 03:50 5,6 C 92 % 1015,8 hPa 0,0 mm 6,4 km/h (2 Bft) W 270 0 min 0 UV-I 0 W/m 19,3 km/h (3 Bft)
18.03.2011 04:00 5,5 C 92 % 1015,9 hPa 0,0 mm 8,0 km/h (2 Bft) W 270 0 min 0 UV-I 0 W/m 17,7 km/h (3 Bft)
18.03.2011 04:10 5,4 C 92 % 1016,0 hPa 0,0 mm 8,0 km/h (2 Bft) W 270 0 min 0 UV-I 0 W/m 20,9 km/h (4 Bft)
18.03.2011 04:20 5,3 C 92 % 1016,3 hPa 0,0 mm 8,0 km/h (2 Bft) W-NW 292 0 min 0 UV-I 0 W/m 25,7 km/h (4 Bft)
18.03.2011 04:30 5,2 C 92 % 1016,4 hPa 0,0 mm 8,0 km/h (2 Bft) W 270 0 min 0 UV-I 0 W/m 27,4 km/h (4 Bft)
18.03.2011 04:40 5,2 C 92 % 1016,5 hPa 0,3 mm 6,4 km/h (2 Bft) W 270 0 min 0 UV-I 0 W/m 17,7 km/h (3 Bft)
18.03.2011 04:50 5,1 C 92 % 1016,8 hPa 0,0 mm 4,8 km/h (1 Bft) W 270 0 min 0 UV-I 0 W/m 19,3 km/h (3 Bft)
18.03.2011 05:00 5,1 C 92 % 1017,0 hPa 0,0 mm 4,8 km/h (1 Bft) W-NW 292 0 min 0 UV-I 0 W/m 16,1 km/h (3 Bft)
18.03.2011 05:10 5,1 C 93 % 1017,1 hPa 0,0 mm 4,8 km/h (1 Bft) W 270 0 min 0 UV-I 0 W/m 14,5 km/h (3 Bft)
18.03.2011 05:20 5,0 C 92 % 1017,2 hPa 0,0 mm 4,8 km/h (1 Bft) W 270 0 min 0 UV-I 0 W/m 17,7 km/h (3 Bft)
18.03.2011 05:30 4,9 C 92 % 1017,4 hPa 0,0 mm 8,0 km/h (2 Bft) W 270 0 min 0 UV-I 0 W/m 20,9 km/h (4 Bft)
18.03.2011 05:40 4,8 C 92 % 1017,4 hPa 0,0 mm 4,8 km/h (1 Bft) W-NW 292 0 min 0 UV-I 0 W/m 16,1 km/h (3 Bft)
18.03.2011 05:50 4,7 C 92 % 1017,7 hPa 0,0 mm 6,4 km/h (2 Bft) W-NW 292 0 min 0 UV-I 0 W/m 22,5 km/h (4 Bft)
18.03.2011 06:00 4,6 C 92 % 1017,8 hPa 0,0 mm 6,4 km/h (2 Bft) W-NW 292 0 min 0 UV-I 0 W/m 20,9 km/h (4 Bft)
18.03.2011 06:10 4,5 C 92 % 1018,0 hPa 0,0 mm 4,8 km/h (1 Bft) W-NW 292 0 min 0 UV-I 0 W/m 19,3 km/h (3 Bft)
18.03.2011 06:20 4,4 C 93 % 1018,0 hPa 0,0 mm 3,2 km/h (1 Bft) W-NW 292 0 min 0 UV-I 0 W/m 11,3 km/h (2 Bft)
18.03.2011 06:30 4,4 C 93 % 1018,2 hPa 0,0 mm 4,8 km/h (1 Bft) W-NW 292 0 min 0 UV-I 0 W/m 17,7 km/h (3 Bft)
18.03.2011 06:40 4,4 C 93 % 1018,3 hPa 0,0 mm 4,8 km/h (1 Bft) W-NW 292 0 min 0 UV-I 0 W/m 14,5 km/h (3 Bft)
18.03.2011 06:50 4,4 C 93 % 1018,5 hPa 0,3 mm 4,8 km/h (1 Bft) W 270 0 min 0 UV-I 0 W/m 16,1 km/h (3 Bft)
18.03.2011 07:00 4,3 C 93 % 1018,5 hPa 0,0 mm 4,8 km/h (1 Bft) W 270 0 min 0 UV-I 0 W/m 16,1 km/h (3 Bft)
18.03.2011 07:10 4,3 C 93 % 1018,7 hPa 0,0 mm 4,8 km/h (1 Bft) W 270 0 min 0 UV-I 0 W/m 16,1 km/h (3 Bft)
18.03.2011 07:20 4,3 C 93 % 1018,7 hPa 0,0 mm 4,8 km/h (1 Bft) W 270 0 min 0 UV-I 5 W/m 20,9 km/h (4 Bft)
18.03.2011 07:30 4,3 C 93 % 1018,7 hPa 0,0 mm 3,2 km/h (1 Bft) W-NW 292 0 min 0 UV-I 5 W/m 11,3 km/h (2 Bft)
18.03.2011 07:40 4,3 C 93 % 1018,8 hPa 0,0 mm 3,2 km/h (1 Bft) W 270 0 min 0 UV-I 9 W/m 9,7 km/h (2 Bft)
18.03.2011 07:50 4,3 C 93 % 1018,9 hPa 0,0 mm 4,8 km/h (1 Bft) W 270 0 min 0 UV-I 23 W/m 20,9 km/h (4 Bft)
18.03.2011 08:00 4,3 C 93 % 1019,0 hPa 0,0 mm 4,4 km/h (1 Bft) W-NW 299 0 min 0 UV-I 26 W/m 11,3 km/h (2 Bft)
18.03.2011 08:10 4,2 C 93 % 1019,3 hPa 0,0 mm 5,3 km/h (1 Bft) W-NW 284 0 min 0 UV-I 32 W/m 14,5 km/h (3 Bft)
18.03.2011 08:20 4,2 C 93 % 1019,5 hPa 0,0 mm 4,8 km/h (1 Bft) W-NW 292 0 min 0 UV-I 35 W/m 16,1 km/h (3 Bft)
18.03.2011 08:30 4,2 C 93 % 1019,5 hPa 0,0 mm 3,2 km/h (1 Bft) W 270 0 min 0 UV-I 46 W/m 9,7 km/h (2 Bft)
18.03.2011 08:40 4,2 C 93 % 1019,5 hPa 0,0 mm 3,2 km/h (1 Bft) W-SW 247 0 min 0 UV-I 51 W/m 9,7 km/h (2 Bft)
18.03.2011 08:50 4,3 C 93 % 1019,6 hPa 0,0 mm 4,8 km/h (1 Bft) W 270 0 min 0 UV-I 69 W/m 11,3 km/h (2 Bft)
18.03.2011 09:00 4,3 C 93 % 1019,8 hPa 0,0 mm 3,2 km/h (1 Bft) W-NW 292 0 min 0 UV-I 60 W/m 9,7 km/h (2 Bft)
18.03.2011 09:10 4,4 C 93 % 1019,9 hPa 0,0 mm 3,2 km/h (1 Bft) W 270 0 min 0 UV-I 44 W/m 16,1 km/h (3 Bft)
18.03.2011 09:20 4,4 C 93 % 1020,0 hPa 0,0 mm 4,8 km/h (1 Bft) W 270 0 min 0 UV-I 58 W/m 16,1 km/h (3 Bft)
18.03.2011 09:30 4,4 C 93 % 1020,0 hPa 0,0 mm 3,2 km/h (1 Bft) W 270 0 min 1 UV-I 81 W/m 11,3 km/h (2 Bft)
18.03.2011 09:40 4,5 C 93 % 1020,0 hPa 0,0 mm 3,2 km/h (1 Bft) W 270 0 min 1 UV-I 90 W/m 11,3 km/h (2 Bft)
18.03.2011 09:50 4,6 C 93 % 1020,3 hPa 0,0 mm 4,8 km/h (1 Bft) W-SW 247 0 min 1 UV-I 104 W/m 22,5 km/h (4 Bft)
18.03.2011 10:00 4,6 C 93 % 1020,3 hPa 0,0 mm 4,8 km/h (1 Bft) W 270 0 min 1 UV-I 100 W/m 11,3 km/h (2 Bft)
18.03.2011 10:10 4,7 C 93 % 1020,5 hPa 0,0 mm 4,8 km/h (1 Bft) W 270 0 min 1 UV-I 74 W/m 11,3 km/h (2 Bft)
18.03.2011 10:20 4,7 C 93 % 1020,5 hPa 0,0 mm 6,4 km/h (2 Bft) W-SW 247 0 min 0 UV-I 49 W/m 17,7 km/h (3 Bft)
18.03.2011 10:30 4,6 C 93 % 1020,7 hPa 0,0 mm 4,8 km/h (1 Bft) W 270 0 min 0 UV-I 47 W/m 11,3 km/h (2 Bft)
18.03.2011 10:40 4,6 C 93 % 1020,7 hPa 0,0 mm 6,4 km/h (2 Bft) W 270 0 min 1 UV-I 90 W/m 19,3 km/h (3 Bft)
18.03.2011 10:50 4,6 C 93 % 1020,7 hPa 0,0 mm 4,8 km/h (1 Bft) W 270 0 min 1 UV-I 95 W/m 14,5 km/h (3 Bft)
18.03.2011 11:00 4,6 C 93 % 1020,9 hPa 0,0 mm 4,8 km/h (1 Bft) W 270 0 min 1 UV-I 70 W/m 19,3 km/h (3 Bft)
18.03.2011 11:10 4,6 C 93 % 1020,9 hPa 0,0 mm 6,4 km/h (2 Bft) W 270 0 min 1 UV-I 162 W/m 19,3 km/h (3 Bft)
18.03.2011 11:20 4,7 C 93 % 1020,9 hPa 0,0 mm 6,4 km/h (2 Bft) W 270 0 min 1 UV-I 183 W/m 17,7 km/h (3 Bft)
18.03.2011 11:30 4,8 C 92 % 1021,1 hPa 0,3 mm 9,7 km/h (2 Bft) W-NW 292 0 min 1 UV-I 107 W/m 25,7 km/h (4 Bft)
18.03.2011 11:40 4,6 C 92 % 1021,2 hPa 0,0 mm 4,8 km/h (1 Bft) NW 315 0 min 1 UV-I 151 W/m 19,3 km/h (3 Bft)
18.03.2011 11:50 4,7 C 92 % 1021,2 hPa 0,0 mm 3,2 km/h (1 Bft) W-NW 292 0 min 1 UV-I 160 W/m 14,5 km/h (3 Bft)
18.03.2011 12:00 4,8 C 92 % 1021,4 hPa 0,0 mm 3,2 km/h (1 Bft) W-NW 292 0 min 1 UV-I 155 W/m 9,7 km/h (2 Bft)
18.03.2011 12:10 4,9 C 92 % 1021,4 hPa 0,0 mm 4,8 km/h (1 Bft) W 270 0 min 1 UV-I 153 W/m 11,3 km/h (2 Bft)
18.03.2011 12:20 4,9 C 92 % 1021,4 hPa 0,0 mm 4,8 km/h (1 Bft) W 270 0 min 1 UV-I 109 W/m 12,9 km/h (3 Bft)
18.03.2011 12:30 5,0 C 92 % 1021,5 hPa 0,0 mm 6,4 km/h (2 Bft) W-SW 247 0 min 1 UV-I 105 W/m 17,7 km/h (3 Bft)
18.03.2011 12:40 5,0 C 91 % 1021,7 hPa 0,0 mm 3,2 km/h (1 Bft) W 270 0 min 1 UV-I 72 W/m 14,5 km/h (3 Bft)
18.03.2011 12:50 5,0 C 91 % 1021,7 hPa 0,0 mm 1,6 km/h (1 Bft) W-SW 247 0 min 1 UV-I 192 W/m 11,3 km/h (2 Bft)
18.03.2011 13:00 5,3 C 92 % 1021,5 hPa 0,0 mm 3,2 km/h (1 Bft) W-SW 247 10 min 2 UV-I 401 W/m 9,7 km/h (2 Bft)
18.03.2011 13:10 5,7 C 91 % 1021,5 hPa 0,0 mm 3,2 km/h (1 Bft) SW 225 0 min 2 UV-I 237 W/m 11,3 km/h (2 Bft)
18.03.2011 13:20 5,8 C 90 % 1021,4 hPa 0,0 mm 3,2 km/h (1 Bft) W 270 0 min 2 UV-I 241 W/m 9,7 km/h (2 Bft)
18.03.2011 13:30 6,0 C 89 % 1021,4 hPa 0,0 mm 3,2 km/h (1 Bft) W-NW 292 0 min 2 UV-I 255 W/m 9,7 km/h (2 Bft)
18.03.2011 13:40 6,3 C 87 % 1021,5 hPa 0,0 mm 4,8 km/h (1 Bft) W 270 10 min 2 UV-I 404 W/m 11,3 km/h (2 Bft)
18.03.2011 13:50 6,8 C 83 % 1021,5 hPa 0,0 mm 6,4 km/h (2 Bft) W 270 10 min 2 UV-I 369 W/m 17,7 km/h (3 Bft)
18.03.2011 14:00 6,8 C 83 % 1021,5 hPa 0,0 mm 4,8 km/h (1 Bft) W 270 0 min 1 UV-I 188 W/m 19,3 km/h (3 Bft)
18.03.2011 14:10 6,8 C 82 % 1021,5 hPa 0,0 mm 4,8 km/h (1 Bft) W 270 0 min 1 UV-I 128 W/m 14,5 km/h (3 Bft)
18.03.2011 14:20 6,7 C 82 % 1021,4 hPa 0,0 mm 4,8 km/h (1 Bft) W-SW 247 0 min 1 UV-I 93 W/m 17,7 km/h (3 Bft)
18.03.2011 14:30 6,7 C 82 % 1021,4 hPa 0,0 mm 4,8 km/h (1 Bft) W 270 0 min 1 UV-I 95 W/m 14,5 km/h (3 Bft)
18.03.2011 14:40 6,7 C 82 % 1021,4 hPa 0,0 mm 4,8 km/h (1 Bft) W-SW 247 0 min 1 UV-I 86 W/m 17,7 km/h (3 Bft)
18.03.2011 14:50 6,7 C 82 % 1021,5 hPa 0,0 mm 3,2 km/h (1 Bft) W-SW 247 0 min 0 UV-I 69 W/m 11,3 km/h (2 Bft)
18.03.2011 15:00 6,8 C 82 % 1021,4 hPa 0,0 mm 3,2 km/h (1 Bft) SW 225 0 min 0 UV-I 62 W/m 8,0 km/h (2 Bft)
18.03.2011 15:10 6,8 C 82 % 1021,6 hPa 0,0 mm 0,0 km/h (0 Bft) W-SW 247 0 min 1 UV-I 95 W/m 4,8 km/h (1 Bft)
18.03.2011 15:20 6,8 C 83 % 1021,5 hPa 0,0 mm 1,6 km/h (1 Bft) W 270 0 min 1 UV-I 211 W/m 8,0 km/h (2 Bft)
18.03.2011 15:30 7,2 C 81 % 1021,4 hPa 0,0 mm 3,2 km/h (1 Bft) W 270 10 min 1 UV-I 513 W/m 8,0 km/h (2 Bft)
18.03.2011 15:40 7,9 C 77 % 1021,4 hPa 0,0 mm 4,8 km/h (1 Bft) W 270 0 min 1 UV-I 192 W/m 14,5 km/h (3 Bft)
18.03.2011 15:50 7,8 C 77 % 1021,4 hPa 0,0 mm 3,2 km/h (1 Bft) W 270 0 min 1 UV-I 163 W/m 9,7 km/h (2 Bft)
18.03.2011 16:00 7,8 C 76 % 1021,5 hPa 0,0 mm 5,7 km/h (1 Bft) W 267 0 min 1 UV-I 117 W/m 8,0 km/h (2 Bft)
18.03.2011 16:10 7,8 C 76 % 1021,5 hPa 0,0 mm 3,3 km/h (1 Bft) W-SW 249 0 min 0 UV-I 65 W/m 11,3 km/h (2 Bft)
18.03.2011 16:20 7,7 C 76 % 1021,6 hPa 0,0 mm 4,3 km/h (1 Bft) W 262 0 min 0 UV-I 47 W/m 16,1 km/h (3 Bft)
18.03.2011 16:30 7,7 C 76 % 1021,5 hPa 0,0 mm 2,2 km/h (1 Bft) W 265 0 min 0 UV-I 102 W/m 14,5 km/h (3 Bft)
18.03.2011 16:40 7,8 C 76 % 1021,6 hPa 0,0 mm 2,6 km/h (1 Bft) W 261 0 min 1 UV-I 79 W/m 9,7 km/h (2 Bft)
18.03.2011 16:50 7,8 C 76 % 1021,6 hPa 0,0 mm 1,6 km/h (1 Bft) W 263 0 min 0 UV-I 64 W/m 6,4 km/h (2 Bft)
18.03.2011 17:00 7,8 C 76 % 1021,7 hPa 0,0 mm 1,2 km/h (1 Bft) W 265 0 min 0 UV-I 60 W/m 4,8 km/h (1 Bft)
18.03.2011 17:10 7,8 C 76 % 1021,7 hPa 0,0 mm 1,2 km/h (1 Bft) W 265 0 min 0 UV-I 69 W/m 6,4 km/h (2 Bft)
18.03.2011 17:20 7,8 C 76 % 1021,7 hPa 0,0 mm 0,9 km/h (0 Bft) W 265 0 min 0 UV-I 73 W/m 4,8 km/h (1 Bft)
18.03.2011 17:30 7,8 C 76 % 1021,8 hPa 0,0 mm 0,9 km/h (0 Bft) SW 236 0 min 0 UV-I 53 W/m 4,8 km/h (1 Bft)
18.03.2011 17:40 7,8 C 76 % 1022,0 hPa 0,0 mm 0,5 km/h (0 Bft) SW 236 0 min 0 UV-I 45 W/m 3,2 km/h (1 Bft)
18.03.2011 17:50 7,8 C 77 % 1022,1 hPa 0,0 mm 0,2 km/h (0 Bft) SW 236 0 min 0 UV-I 28 W/m 1,6 km/h (1 Bft)
18.03.2011 18:00 7,8 C 77 % 1022,1 hPa 0,0 mm 0,4 km/h (0 Bft) SW 236 0 min 0 UV-I 12 W/m 3,2 km/h (1 Bft)
18.03.2011 18:10 7,8 C 77 % 1022,2 hPa 0,0 mm 0,0 km/h (0 Bft) SW 236 0 min 0 UV-I 7 W/m 1,6 km/h (1 Bft)
18.03.2011 18:20 7,7 C 78 % 1022,2 hPa 0,0 mm 0,0 km/h (0 Bft) SW 236 0 min 0 UV-I 1 W/m 1,6 km/h (1 Bft)
18.03.2011 18:30 7,7 C 78 % 1022,4 hPa 0,0 mm 0,0 km/h (0 Bft) SW 236 0 min 0 UV-I 0 W/m 0,0 km/h (0 Bft)
18.03.2011 18:40 7,6 C 78 % 1022,5 hPa 0,0 mm 0,0 km/h (0 Bft) SW 236 0 min 0 UV-I 0 W/m 0,0 km/h (0 Bft)
18.03.2011 18:50 7,6 C 78 % 1022,6 hPa 0,0 mm 0,0 km/h (0 Bft) SW 236 0 min 0 UV-I 0 W/m 0,0 km/h (0 Bft)
18.03.2011 19:00 7,5 C 78 % 1022,6 hPa 0,0 mm 0,0 km/h (0 Bft) SW 236 0 min 0 UV-I 0 W/m 0,0 km/h (0 Bft)
18.03.2011 19:10 7,4 C 78 % 1022,7 hPa 0,0 mm 0,0 km/h (0 Bft) SW 236 0 min 0 UV-I 0 W/m 0,0 km/h (0 Bft)
18.03.2011 19:20 7,3 C 79 % 1022,9 hPa 0,0 mm 0,0 km/h (0 Bft) SW 236 0 min 0 UV-I 0 W/m 0,0 km/h (0 Bft)
18.03.2011 19:30 7,3 C 79 % 1023,0 hPa 0,0 mm 0,0 km/h (0 Bft) SW 236 0 min 0 UV-I 0 W/m 1,6 km/h (1 Bft)
18.03.2011 19:40 7,2 C 79 % 1022,9 hPa 0,0 mm 0,0 km/h (0 Bft) SW 236 0 min 0 UV-I 0 W/m 1,6 km/h (1 Bft)
18.03.2011 19:50 7,1 C 80 % 1023,0 hPa 0,0 mm 0,0 km/h (0 Bft) SW 236 0 min 0 UV-I 0 W/m 1,6 km/h (1 Bft)
18.03.2011 20:00 7,1 C 80 % 1023,2 hPa 0,0 mm 0,0 km/h (0 Bft) SW 236 0 min 0 UV-I 0 W/m 0,0 km/h (0 Bft)
18.03.2011 20:10 7,0 C 80 % 1023,3 hPa 0,0 mm 0,0 km/h (0 Bft) SW 236 0 min 0 UV-I 0 W/m 1,6 km/h (1 Bft)
18.03.2011 20:20 6,9 C 80 % 1023,3 hPa 0,0 mm 0,0 km/h (0 Bft) SW 236 0 min 0 UV-I 0 W/m 1,6 km/h (1 Bft)
18.03.2011 20:30 6,9 C 81 % 1023,4 hPa 0,0 mm 0,0 km/h (0 Bft) SW 236 0 min 0 UV-I 0 W/m 1,6 km/h (1 Bft)
18.03.2011 20:40 6,8 C 81 % 1023,5 hPa 0,0 mm 0,0 km/h (0 Bft) SW 236 0 min 0 UV-I 0 W/m 0,0 km/h (0 Bft)
18.03.2011 20:50 6,8 C 81 % 1023,5 hPa 0,0 mm 0,0 km/h (0 Bft) SW 236 0 min 0 UV-I 0 W/m 0,0 km/h (0 Bft)
18.03.2011 21:00 6,7 C 81 % 1023,5 hPa 0,0 mm 0,0 km/h (0 Bft) SW 236 0 min 0 UV-I 0 W/m 1,6 km/h (1 Bft)
18.03.2011 21:10 6,6 C 81 % 1023,5 hPa 0,0 mm 0,0 km/h (0 Bft) SW 236 0 min 0 UV-I 0 W/m 1,6 km/h (1 Bft)
18.03.2011 21:20 6,6 C 81 % 1023,7 hPa 0,0 mm 0,0 km/h (0 Bft) SW 236 0 min 0 UV-I 0 W/m 0,0 km/h (0 Bft)
18.03.2011 21:30 6,5 C 81 % 1023,7 hPa 0,0 mm 0,1 km/h (0 Bft) SW 236 0 min 0 UV-I 0 W/m 1,6 km/h (1 Bft)
18.03.2011 21:40 6,4 C 81 % 1023,8 hPa 0,0 mm 0,0 km/h (0 Bft) SW 236 0 min 0 UV-I 0 W/m 0,0 km/h (0 Bft)
18.03.2011 21:50 6,3 C 82 % 1023,9 hPa 0,0 mm 0,0 km/h (0 Bft) SW 236 0 min 0 UV-I 0 W/m 1,6 km/h (1 Bft)
18.03.2011 22:00 6,3 C 82 % 1024,0 hPa 0,0 mm 0,0 km/h (0 Bft) SW 236 0 min 0 UV-I 0 W/m 1,6 km/h (1 Bft)
18.03.2011 22:10 6,3 C 82 % 1024,0 hPa 0,0 mm 0,0 km/h (0 Bft) SW 236 0 min 0 UV-I 0 W/m 0,0 km/h (0 Bft)
18.03.2011 22:20 6,3 C 83 % 1024,1 hPa 0,0 mm 0,0 km/h (0 Bft) SW 236 0 min 0 UV-I 0 W/m 0,0 km/h (0 Bft)
18.03.2011 22:30 6,2 C 83 % 1024,1 hPa 0,0 mm 0,0 km/h (0 Bft) SW 236 0 min 0 UV-I 0 W/m 0,0 km/h (0 Bft)
18.03.2011 22:40 6,2 C 83 % 1024,2 hPa 0,0 mm 0,0 km/h (0 Bft) SW 236 0 min 0 UV-I 0 W/m 0,0 km/h (0 Bft)
18.03.2011 22:50 6,1 C 83 % 1024,2 hPa 0,0 mm 0,0 km/h (0 Bft) SW 236 0 min 0 UV-I 0 W/m 0,0 km/h (0 Bft)
18.03.2011 23:00 6,1 C 83 % 1024,3 hPa 0,0 mm 0,0 km/h (0 Bft) SW 236 0 min 0 UV-I 0 W/m 0,0 km/h (0 Bft)
18.03.2011 23:10 6,1 C 83 % 1024,2 hPa 0,0 mm 0,0 km/h (0 Bft) SW 236 0 min 0 UV-I 0 W/m 0,0 km/h (0 Bft)
18.03.2011 23:20 6,0 C 83 % 1024,2 hPa 0,0 mm 0,0 km/h (0 Bft) SW 236 0 min 0 UV-I 0 W/m 0,0 km/h (0 Bft)
18.03.2011 23:30 5,9 C 83 % 1024,3 hPa 0,0 mm 0,0 km/h (0 Bft) N 0 0 min 0 UV-I 0 W/m 0,0 km/h (0 Bft)
18.03.2011 23:40 5,9 C 83 % 1024,4 hPa 0,0 mm 0,0 km/h (0 Bft) N 0 0 min 0 UV-I 0 W/m 0,0 km/h (0 Bft)
18.03.2011 23:50 5,9 C 84 % 1024,6 hPa 0,0 mm 0,0 km/h (0 Bft) N 0 0 min 0 UV-I 0 W/m 0,0 km/h (0 Bft)
_ Min-Zeit 08:10 16:00 00:00 - 15:10 - - - - - 18:30
Minimum _ 4,2 C 76 % 1013,4 hPa - 0,0 km/h (0 Bft) - - - - - 0,0 km/h (0 Bft)
_ Max-Zeit 15:40 05:10 23:50 02:20 11:30 - - 13:00 13:00 15:30 04:30
Maximum _ 7,9 C 93 % 1024,6 hPa 0,3 mm 9,7 km/h
W-NW (2 Bft)
- - 10 min 2 UV-I 513 W/m 27,4 km/h
N-NW (4 Bft)
Durchschnitt _ 5,9 C 87 % 1020,0 hPa #1,0 mm 3,4 km/h (1 Bft) W - #40 min. 1 UV-I 111 W/m 11,2 km/h (2 Bft)